Danville Regional Airport
KDAN : now visible

Aeroporto :











RITROVATECI SU...

 
LOGIN :

Iscrizione | Disclaimer

   EN    FR    IT 

 









Sommario :    VFR   VFR Marginale   IFR   IFR Intensivo   IFR Molto Intensivo
Visibilità : 
Base nubi : 
>= 8 km
>= 3000ft
5 / 8 km
1000 / 3000 ft
1500m / 5 km
500 / 1000 ft
800 / 1500m
200 / 500 ft
< 800m
< 200 ft
Simboli :   Temporali  Nebbia  Neve Forte  Precipitazioni Forti  Vento > 20 kt







- Altitudine del aeroporto : 571 ft
- Codice IATA : DAN


KDAN - Danville Regional

ULTIMO METAR :
  • 222053Z AUTO 30007KT 10SM CLR 23/05 A3009 RMK AO2 SLP183 T02280050 56022

METARs OBSOLETI :
  • 221953Z AUTO VRB05KT 10SM CLR 22/06 A3010 RMK AO2 SLP187 T02220056
  • 221853Z AUTO 27005KT 10SM CLR 22/07 A3013 RMK AO2 SLP197 T02170072

TAF KDAN
Valido dal 22 a 18 ore il 23 a 18 ore UTC


221730Z 2218/2318 27007KT P6SM SKC
FM230000 VRB03KT P6SM SKC
FM231500 23005KT P6SM SKC
FIR KZDC / America del Nord



MetMap, La meteo Aeronautica in un colpo d'occhio ! - Copyright ORBIFLY Dicembre 2007 - Disclaimer

ORBIFLY MET'MAP TEAM :

Programmazione e sviluppo : Alexandra Zaïnal
Concezione e sviluppo : Baudouin d'Aumeries
Co-Programmazione e sviluppo : Marc-Olivier Méhu
Supporto tecnico e logistico : Manuel Goepfert
Aiuto per la traduzione : Arnaldo La Scala

Contatto : metmap@orbifly.com




FONTI E CREDITI :

   NOAA       Earth
Advisory